Station info - map view · info · telemetry · weather · raw · status · beacons · messages · bulletins · browse · moving · my account
Callsign, ship name or locator: Clear       
It is possible to search using wildcards (*?) after a prefix. Example: OH*
APRS station SQ8SBN-10 - show graphs
Map loading...
Comment: www.sp8pde.pl.tl
Mic-E message: Off duty
Location: 50°42.98' N 23°20.25' E - locator KO10QR01MW - show map - static map
2.5 miles Southwest bearing 206° from Sitno, Powiat zamojski, Lublin Voivodeship, Poland [?]
3.8 miles East bearing 97° from Zamość, Zamość, Lublin Voivodeship, Poland
49.8 miles Southeast bearing 137° from Lublin, Lublin Voivodeship, Poland
67.8 miles Northwest bearing 334° from L'viv, L'vivs'ka, Ukraine
Last position: 2017-02-25 17:45:21 EST (4m43s ago)
2017-02-25 23:45:21 CET local time at Sitno, Poland [?]
Altitude: 709 ft
Course: 80°
Speed: 36 MPH
Last path: SQ8SBN-10>UPTR98 via SP8PDE-4,WIDE1,SP8PRL*,WIDE2,qAR,SR8NPG-1 (good)
Positions stored: 46220
Packet rate: 134 seconds between packets on average during 6717 seconds.
Other SSIDs: SQ8SBN-9
APRS digipeater – Statistics for 2017-02:
Stations heard directly: 1 on radio path – show map
Last heard a station directly: 2017-02-25 11:35:18 EST (6h14m ago)
Position packets heard directly: 1 on radio path
Stations near current position of SQ8SBN-10 - show more
callsign distance last heard - EST      callsign distance last heard - EST
SQ8NXF2.8 miles 268°2017-02-10 08:11:51 SR8Z8.1 miles 203°2017-02-24 12:01:51
SR8ZA8.1 miles 203°2017-02-24 12:02:21 SQ8ESC19.8 miles 309°2017-02-25 16:35:29
M384079820.3 miles 291°2017-02-21 20:12:55 SP8PDE-425.3 miles 76°2017-02-25 17:36:23
Stations which heard SQ8SBN-10 directly on radio –
callsign pkts first heard - EST last heard longest (tx => rx) longest at - EST
DO0SG 1 2017-02-25 05:51:12 2017-02-25 05:51:12 JN48NT > JN48ST 22.5 miles 93° 2017-02-25 05:51:12
SR6NWS 77 2017-02-25 11:05:31 2017-02-25 13:05:47 JO90BL > JO80FQ 74.7 miles 282° 2017-02-25 13:05:47
SR9DZB 1 2017-02-25 13:06:08 2017-02-25 13:06:08 JO90BL > JO90IS 31.6 miles 45° 2017-02-25 13:06:08
SR9NWC 14 2017-02-25 13:51:20 2017-02-25 14:37:24 JO90OD > JN99XP 47.7 miles 136° 2017-02-25 13:51:20
DB0VOX 28 2017-02-25 07:01:52 2017-02-25 07:54:22 JN59EF > JN59MK 32.3 miles 67° 2017-02-25 07:05:12
DB0HOR 1 2017-02-25 05:17:35 2017-02-25 05:17:35 JN48IJ > JN48CN 25.6 miles 298° 2017-02-25 05:17:35
DB0ADS 1 2017-02-25 08:05:49 2017-02-25 08:05:49 JN59ST > JN59GT 41.0 miles 269° 2017-02-25 08:05:49
HB9ZF-1 187 2017-02-10 13:00:57 2017-02-25 03:56:18 JN47HJ > JN47KG 14.7 miles 127° 2017-02-25 03:53:42
DB0KUN 31 2017-02-25 06:03:35 2017-02-25 06:55:51 JN59DF > JN49TH 27.4 miles 283° 2017-02-25 06:55:51
DB0BL 6 2017-02-25 07:06:41 2017-02-25 07:15:29 JN59HG > JN58EV 29.3 miles 206° 2017-02-25 07:15:29
DL3SL-6 17 2017-02-25 06:08:36 2017-02-25 06:30:54 JN49TE > JN49RE 8.7 miles 262° 2017-02-25 06:30:54
DB0REN 17 2017-02-25 08:13:26 2017-02-25 09:01:09 JO60DO > JO50RK 39.5 miles 256° 2017-02-25 09:01:09
SR8NWD 22 2017-02-25 15:01:20 2017-02-25 17:14:43 KO10KQ > KN19EV 61.2 miles 202° 2017-02-25 17:14:43
SR9NWJ 4 2017-02-25 14:43:05 2017-02-25 15:20:18 KO00QC > KN09KK 50.2 miles 204° 2017-02-25 15:02:01
DB0RO 1 2017-02-25 06:30:46 2017-02-25 06:30:46 JN49TE > JN49AF 71.8 miles 272° 2017-02-25 06:30:46
DB0SAE 9 2017-02-03 13:04:41 2017-02-25 04:35:51 JN47JH > JN47AQ 42.1 miles 309° 2017-02-10 13:46:31
DB0TFM-1 2 2017-02-25 06:06:21 2017-02-25 06:26:16 JN49SF > JN48ES 59.1 miles 238° 2017-02-25 06:26:16
DB0RWP 23 2017-02-25 04:52:30 2017-02-25 05:15:27 JN48II > JN48HD 15.3 miles 191° 2017-02-25 05:15:27
DB0GKM 3 2017-02-25 05:24:48 2017-02-25 05:26:42 JN48KN > JN48NK 15.2 miles 130° 2017-02-25 05:26:42
DM0MW 2 2017-02-25 09:44:04 2017-02-25 09:45:55 JO61OA > JO60LX 8.6 miles 263° 2017-02-25 09:45:55
DB0WBE 9 2017-02-25 09:51:30 2017-02-25 10:22:18 JO71DE > JO61SL 38.3 miles 301° 2017-02-25 10:22:18
DM0AI-10 15 2017-02-25 05:29:35 2017-02-25 05:51:26 JN48NU > JN48KQ 15.5 miles 225° 2017-02-25 05:51:26
SR8NDR 4 2017-02-25 15:43:06 2017-02-25 15:56:50 KO10BF > KO00XA 15.9 miles 202° 2017-02-25 15:56:50
HB9LU-10 14 2017-02-03 13:43:05 2017-02-15 06:59:18 JN47IH > JN47DB 28.8 miles 229° 2017-02-10 13:27:16
SR9NDX 27 2017-02-25 13:05:53 2017-02-25 14:01:42 JO90BL > JO90MH 39.0 miles 107° 2017-02-25 13:05:53
DB0CI 2 2017-02-25 05:04:12 2017-02-25 05:05:27 JN48HE > JN48EF 8.1 miles 284° 2017-02-25 05:05:27
HB9RF-10 49 2017-02-02 04:06:28 2017-02-25 04:55:29 JN48HA > JN47GA 67.6 miles 183° 2017-02-25 04:55:29
SQ9CIE-4 13 2017-02-25 13:44:17 2017-02-25 14:04:50 JO90UC > JO90RJ 24.1 miles 333° 2017-02-25 14:04:50
HB3YGT-10 1 2017-02-15 06:00:29 2017-02-15 06:00:29 JN47JH > JN47LN 20.5 miles 25° 2017-02-15 06:00:29
HB9ZF-3 151 2017-02-02 04:04:47 2017-02-25 04:18:08 JN47IG > JN47HL 14.3 miles 346° 2017-02-15 05:53:00
OM3KHE-2 1 2017-02-25 13:23:59 2017-02-25 13:23:59 JO90HG > JN99JC 81.7 miles 173° 2017-02-25 13:23:59
SQ6OXK 3 2017-02-25 12:12:36 2017-02-25 12:21:28 JO80MX > JO81NB 7.0 miles 11° 2017-02-25 12:21:28
SP9SVH 8 2017-02-25 14:07:22 2017-02-25 14:16:22 JN99WX > JO90VC 8.6 miles 341° 2017-02-25 14:16:22
SP8PRL 2 2017-02-25 17:14:52 2017-02-25 17:16:44 KO10KQ > KO11RD 38.2 miles 40° 2017-02-25 17:14:52
HB9ZZ-1 5 2017-02-10 13:26:00 2017-02-25 02:45:31 JN47IH > JN47GJ 9.8 miles 300° 2017-02-15 06:39:25
SR6NKB 47 2017-02-25 11:59:16 2017-02-25 13:28:23 JO81IA > JO80RG 61.6 miles 148° 2017-02-25 11:59:16
HB9TG 6 2017-02-25 03:55:47 2017-02-25 04:18:21 JN47HQ > JN47MM 19.9 miles 117° 2017-02-25 04:18:21
DB0PIB 42 2017-02-25 09:50:18 2017-02-25 10:45:30 JO61PA > JO71EC 45.9 miles 83° 2017-02-25 09:50:18
DH2IW-10 7 2017-02-25 04:55:38 2017-02-25 05:14:17 JN48II > JN48HB 19.7 miles 185° 2017-02-25 05:14:17
DG3IAP-10 5 2017-02-25 05:59:04 2017-02-25 06:26:14 JN49SF > JN48KV 37.3 miles 234° 2017-02-25 06:26:14
DB0HZG 7 2017-02-25 05:26:13 2017-02-25 05:51:07 JN48NT > JN48MP 14.3 miles 191° 2017-02-25 05:51:07
DK1EC-1 9 2017-02-25 07:14:08 2017-02-25 07:53:21 JN59QO > JN59KM 22.6 miles 253° 2017-02-25 07:53:21
SP9MZX-2 1 2017-02-25 14:58:11 2017-02-25 14:58:11 KO00OC > KO00QB 9.5 miles 111° 2017-02-25 14:58:11
DB0RBB-10 17 2017-02-25 05:25:18 2017-02-25 05:50:21 JN48KM > JN48MQ 12.2 miles 27° 2017-02-25 05:25:18
DB0VS 6 2017-02-25 04:52:24 2017-02-25 05:04:52 JN47HW > JN48EC 14.8 miles 319° 2017-02-25 04:52:24
DB0TN-10 1 2017-02-25 05:16:35 2017-02-25 05:16:35 JN48IJ > JN48BI 26.5 miles 263° 2017-02-25 05:16:35
HB9ID 18 2017-02-25 03:59:52 2017-02-25 04:36:18 JN47IR > JN47JM 16.3 miles 158° 2017-02-25 04:27:02
DB0SAA-10 9 2017-02-25 06:41:25 2017-02-25 06:58:19 JN59DF > JN58BT 32.7 miles 200° 2017-02-25 06:58:19
DB0ERZ 53 2017-02-25 08:27:57 2017-02-25 09:36:01 JO50UD > JO60HK 44.7 miles 62° 2017-02-25 08:27:57
SP9DAP-2 17 2017-02-25 14:55:07 2017-02-25 15:31:28 KO00NB > KO00RB 14.2 miles 97° 2017-02-25 14:55:07
SP8PLM-1 2 2017-02-25 15:51:54 2017-02-25 15:55:02 KO10BF > KO10CB 12.2 miles 155° 2017-02-25 15:55:02
SR9VOD 16 2017-02-25 14:40:50 2017-02-25 15:24:55 KO00RB > KN09LV 27.0 miles 241° 2017-02-25 15:24:55
DG2SDK-10 1 2017-02-25 05:42:13 2017-02-25 05:42:13 JN48MR > JN48PR 10.0 miles 96° 2017-02-25 05:42:13
DB0SPB 18 2017-02-25 10:13:08 2017-02-25 11:01:40 JO61XD > JO70IX 34.5 miles 113° 2017-02-25 10:13:08
DL6SH-10 6 2017-02-25 05:53:04 2017-02-25 06:38:38 JN48NU > JN48SW 21.3 miles 72° 2017-02-25 05:53:04
DB0RMK 14 2017-02-25 05:43:48 2017-02-25 06:06:19 JN48MR > JN48RV 21.6 miles 61° 2017-02-25 05:43:48
DB0TIT-10 2 2017-02-10 13:19:43 2017-02-25 04:53:02 JN47IH > JN47CW 49.2 miles 334° 2017-02-10 13:19:43
SP9DLM 8 2017-02-25 13:11:51 2017-02-25 13:36:21 JO90EK > JO90KH 25.2 miles 111° 2017-02-25 13:11:51
DB0KLI-10 17 2017-02-25 04:55:23 2017-02-25 05:23:22 JN48KM > JN48JC 27.7 miles 188° 2017-02-25 05:23:22
DB0WBD-10 15 2017-02-03 13:43:10 2017-02-25 04:53:43 JN47IG > JN47ET 41.3 miles 334° 2017-02-15 05:53:18
DO6HN-10 1 2017-02-25 06:10:32 2017-02-25 06:10:32 JN49PD > JN49OD 3.2 miles 259° 2017-02-25 06:10:32
DM0SAT-10 31 2017-02-15 05:50:28 2017-02-25 04:47:06 JN47IH > JN47JS 32.7 miles 11° 2017-02-15 05:50:28
SP9DAP-9 1 2017-02-25 14:57:38 2017-02-25 14:57:38 KO00OC > KO00RB 10.6 miles 106° 2017-02-25 14:57:38
DL4SBK-10 8 2017-02-25 05:39:28 2017-02-25 06:02:11 JN48MR > JN48PV 15.1 miles 45° 2017-02-25 05:43:22
SP8PDE-2 2 2017-02-25 15:02:53 2017-02-25 15:03:49 KO00QB > KO00QB 2.2 miles 124° 2017-02-25 15:03:49
SP8EBC-3 38 2017-02-25 14:59:05 2017-02-25 17:02:26 KO10IQ > KN19AX 55.2 miles 212° 2017-02-25 17:02:26
DB0EBZ 20 2017-02-25 06:56:36 2017-02-25 07:56:15 JN59RP > JN59GB 57.2 miles 226° 2017-02-25 07:56:15
DB0ZWI-10 26 2017-02-25 08:44:02 2017-02-25 09:23:13 JO60AJ > JO60FR 30.4 miles 39° 2017-02-25 08:44:02
SR6NDW 3 2017-02-25 12:08:46 2017-02-25 12:22:38 JO80NW > JO81NC 10.9 miles 359° 2017-02-25 12:22:38
OK0DSK-1 21 2017-02-25 13:00:51 2017-02-25 13:56:09 JO90QD > JN99DP 62.4 miles 235° 2017-02-25 13:56:09
SR7NST 54 2017-02-25 14:37:29 2017-02-25 17:02:55 KO10IQ > KO00MN 71.9 miles 264° 2017-02-25 17:02:55
DJ9ZZZ-10 7 2017-02-25 09:51:23 2017-02-25 09:59:29 JO61TB > JO61OI 25.9 miles 321° 2017-02-25 09:59:29
SP9RQB-2 1 2017-02-25 15:04:38 2017-02-25 15:04:38 KO00QB > KO00QB 1.3 miles 135° 2017-02-25 15:04:38
SP9DAP-3 1 2017-02-25 15:03:23 2017-02-25 15:03:23 KO00QB > KO00TB 10.3 miles 102° 2017-02-25 15:03:23
SP8ZBX-4 1 2017-02-25 15:12:26 2017-02-25 15:12:26 KO00QB > KN19DI 64.2 miles 141° 2017-02-25 15:12:26
DB0SAX 9 2017-02-25 09:44:53 2017-02-25 09:54:21 JO61RB > JO61LC 20.8 miles 279° 2017-02-25 09:54:21
HB9DQA-1 10 2017-02-25 04:06:59 2017-02-25 04:46:41 JN47JV > JN47JP 17.6 miles 175° 2017-02-25 04:46:41
DG1JLA-3 22 2017-02-25 09:23:23 2017-02-25 09:47:06 JO60IQ > JO60LV 17.2 miles 35° 2017-02-25 09:23:23
OM0CS-2 1 2017-02-25 15:00:51 2017-02-25 15:00:51 KO00PC > KN09PH 54.8 miles 181° 2017-02-25 15:00:51
SR9WXG 9 2017-02-25 14:44:30 2017-02-25 15:09:58 KO00QB > KN09LO 37.1 miles 207° 2017-02-25 15:03:11
SQ8TUR-2 1 2017-02-25 15:11:05 2017-02-25 15:11:05 KO00QB > KO00SE 9.8 miles 31° 2017-02-25 15:11:05
SQ8DJL-2 1 2017-02-25 15:05:28 2017-02-25 15:05:28 KO00QB > KO00SC 6.8 miles 70° 2017-02-25 15:05:28
SQ9ENH 1 2017-02-25 14:06:14 2017-02-25 14:06:14 JO90UB > JO90UD 5.4 miles 350° 2017-02-25 14:06:14
HB9JNJ-1 11 2017-02-25 03:58:22 2017-02-25 04:15:32 JN47HP > JN47IL 10.6 miles 160° 2017-02-25 04:15:32
SR9NSK 16 2017-02-25 13:50:55 2017-02-25 14:16:16 JO90VC > JN99MQ 44.1 miles 231° 2017-02-25 14:10:24
DO4DR-10 11 2017-02-25 09:04:28 2017-02-25 09:26:05 JO60EO > JO60GT 17.0 miles 27° 2017-02-25 09:04:28
SQ8K-2 1 2017-02-25 15:10:20 2017-02-25 15:10:20 KO00QB > KO00RB 1.4 miles 138° 2017-02-25 15:10:20
DB0RT-10 11 2017-02-25 05:17:58 2017-02-25 05:29:59 JN48IJ > JN48OL 24.1 miles 77° 2017-02-25 05:17:58
DB0XHI-10 1 2017-02-25 05:39:40 2017-02-25 05:39:40 JN48MR > JN48OM 15.6 miles 153° 2017-02-25 05:39:40
DB0WV-10 2 2017-02-03 13:02:34 2017-02-25 04:47:24 JN47IH > JN47QT 48.9 miles 42° 2017-02-03 13:02:34
SQ8RFS-2 1 2017-02-25 15:11:47 2017-02-25 15:11:47 KO00QB > KO00RD 4.5 miles 9° 2017-02-25 15:11:47
SP9XUF-2 1 2017-02-25 15:06:14 2017-02-25 15:06:14 KO00QB > KO00PE 8.9 miles 323° 2017-02-25 15:06:14
DH1GAP-10 5 2017-02-25 04:37:34 2017-02-25 04:48:02 JN47IV > JN47LU 10.2 miles 111° 2017-02-25 04:48:02
SR6NPK 16 2017-02-25 10:59:10 2017-02-25 11:37:57 JO81ED > JO70TS 39.8 miles 231° 2017-02-25 11:37:57
SQ9KFZ-2 1 2017-02-25 13:06:11 2017-02-25 13:06:11 JO90BL > JO90NU 49.8 miles 58° 2017-02-25 13:06:11
SP8RP-2 8 2017-02-25 15:03:07 2017-02-25 15:33:50 KO00QB > KO00SC 9.5 miles 74° 2017-02-25 15:03:49
DD3UTS-3 5 2017-02-25 09:59:35 2017-02-25 10:02:40 JO61TB > JO60XX 15.8 miles 114° 2017-02-25 09:59:35
SR8KKM 13 2017-02-25 14:53:42 2017-02-25 15:31:20 KO00MB > KO00QB 15.6 miles 90° 2017-02-25 14:53:42
DB0ODE-10 25 2017-02-25 06:07:55 2017-02-25 06:41:08 JN49WE > JN49MH 38.1 miles 287° 2017-02-25 06:41:08
DL1NBU-10 1 2017-02-25 08:32:20 2017-02-25 08:32:20 JO50VF > JO50TI 10.8 miles 311° 2017-02-25 08:32:20
SQ8VOX-2 1 2017-02-25 15:09:39 2017-02-25 15:09:39 KO00QB > KO00RB 3.8 miles 107° 2017-02-25 15:09:39
SP8PDE-4 4 2017-02-25 15:02:07 2017-02-25 17:45:21 KO00QC > KO10WT 122.7 miles 65° 2017-02-25 15:02:07
DB0FEU-1 10 2017-02-25 06:51:33 2017-02-25 07:07:46 JN59BF > JN59DD 8.6 miles 114° 2017-02-25 06:51:33
SP9UVG-13 7 2017-02-25 13:40:34 2017-02-25 14:00:50 JO90SC > JO90OE 15.5 miles 290° 2017-02-25 14:00:50
HB9RF-1 2 2017-02-10 13:27:21 2017-02-10 14:09:36 JN47IH > JN47FE 17.3 miles 236° 2017-02-10 13:27:21
DB0ADB-10 1 2017-02-25 08:06:31 2017-02-25 08:06:31 JN59RT > JN59KV 28.8 miles 279° 2017-02-25 08:06:31
DG3VU-10 1 2017-02-25 10:18:22 2017-02-25 10:18:22 JO71BE > JO71BG 7.4 miles 353° 2017-02-25 10:18:22
HB9NF-10 41 2017-02-02 04:07:15 2017-02-25 03:31:27 JN47IH > JN47KJ 12.0 miles 61° 2017-02-25 03:27:36
DB0AB-10 10 2017-02-25 06:56:43 2017-02-25 07:21:53 JN59KH > JN59GD 18.0 miles 229° 2017-02-25 07:21:53
SR9UVC-4 2 2017-02-25 14:17:44 2017-02-25 14:18:23 JN99XX > JN99XX 2.1 miles 171° 2017-02-25 14:18:23
SP8KW-2 1 2017-02-25 15:07:56 2017-02-25 15:07:56 KO00QB > KO00SB 6.3 miles 88° 2017-02-25 15:07:56
DB0OFI 4 2017-02-25 05:39:18 2017-02-25 06:01:52 JN49OA > JN48PR 20.3 miles 170° 2017-02-25 06:01:52
DL1TSC-1 1 2017-02-25 07:53:02 2017-02-25 07:53:02 JN59QO > JN59NN 10.5 miles 252° 2017-02-25 07:53:02
DO5VC-10 3 2017-02-25 10:01:49 2017-02-25 10:04:21 JO61UC > JO61UA 5.9 miles 207° 2017-02-25 10:04:21
HB9HAL-10 1 2017-02-25 04:45:20 2017-02-25 04:45:20 JN47JU > JN46TS 84.9 miles 151° 2017-02-25 04:45:20
SQ9ZAY-3 29 2017-02-25 14:01:12 2017-02-25 14:38:00 JO90SC > KO00CB 27.2 miles 97° 2017-02-25 14:01:12

Only position packets which were originated by the station are shown here. The range statistics show some extra long hops, because some digipeaters do not correctly add themselves to the digipeater path. Please check the raw packets.
Stations heard directly by SQ8SBN-10
callsign pkts first heard - EST last heard longest (rx => tx) longest at - EST
SQ6ODL-9 1 2017-02-25 11:35:18 2017-02-25 11:35:18 JO80CV > JO81DD 16.5 miles 189° 2017-02-25 11:35:18

Only stations from which a position packet has been heard are shown here. The range statistics show some extra long hops, because some digipeaters do not correctly add themselves to the digipeater path. Please check the raw packets.
About this site
This page shows real-time information collected from the Automatic Position Reporting System Internet network (APRS-IS). APRS is used by amateur (ham) radio operators to transmit real-time position information, weather data, telemetry and messages over the radio. A vehicle equipped with a GPS receiver, a VHF transmitter or HF transceiver and a small computer device called a tracker transmits it's location, speed and course in a small data packet, which is then received by a nearby iGate receiving site which forwards the packet on the Internet. Systems connected to the Internet can send information on the APRS-IS without a radio transmitter, or collect and display information transmitted anywhere in the world.
FAQ · Blog · Discussion group · Linking to aprs.fi · AIS sites · Service status · Database statistics · Advertising on aprs.fi · Technical details · API · Change log · Planned changes · Credits and thanks · Terms Of Service · iPhone/iPad APRS